Time;durP1;ratioP1;P1;durP2;ratioP2;P2;SDS_P1;SDS_P2;PMS_P1;PMS_P2;Temp;Humidity;BMP_temperature;BMP_pressure;BME280_temperature;BME280_humidity;BME280_pressure;Samples;Min_cycle;Max_cycle;Signal;HPM_P1;HPM_P2
2020/01/20 00:02:55;;;;;;;2.76;2.07;;;;;;;19.75;39.75;103237.89;;;;-49
2020/01/20 00:05:55;;;;;;;2.50;2.15;;;;;;;19.74;39.81;103242.55;;;;-50
2020/01/20 00:08:55;;;;;;;2.19;1.99;;;;;;;19.72;39.86;103231.02;;;;-49
2020/01/20 00:11:55;;;;;;;2.26;2.04;;;;;;;19.71;39.86;103236.30;;;;-49
2020/01/20 00:14:55;;;;;;;2.40;2.05;;;;;;;19.69;39.83;103238.53;;;;-49
2020/01/20 00:17:55;;;;;;;2.51;1.99;;;;;;;19.68;39.84;103244.81;;;;-50
2020/01/20 00:20:55;;;;;;;2.63;2.07;;;;;;;19.67;39.86;103246.34;;;;-49
2020/01/20 00:23:55;;;;;;;2.39;2.01;;;;;;;19.64;39.86;103246.00;;;;-49
2020/01/20 00:26:55;;;;;;;2.47;2.09;;;;;;;19.63;39.80;103251.09;;;;-49
2020/01/20 00:29:55;;;;;;;2.22;1.89;;;;;;;19.62;39.84;103244.98;;;;-49
2020/01/20 00:32:55;;;;;;;2.60;1.94;;;;;;;19.61;39.90;103245.66;;;;-49
2020/01/20 00:35:55;;;;;;;2.03;1.83;;;;;;;19.60;39.83;103248.50;;;;-49
2020/01/20 00:38:55;;;;;;;2.86;2.05;;;;;;;19.57;39.89;103252.78;;;;-49
2020/01/20 00:41:55;;;;;;;2.43;1.97;;;;;;;19.56;39.86;103257.84;;;;-49
2020/01/20 00:44:55;;;;;;;2.10;1.90;;;;;;;19.55;39.86;103265.27;;;;-49
2020/01/20 00:47:55;;;;;;;2.63;2.03;;;;;;;19.53;39.88;103263.75;;;;-49
2020/01/20 00:50:55;;;;;;;2.07;1.81;;;;;;;19.52;39.92;103269.56;;;;-49
2020/01/20 00:53:55;;;;;;;2.07;1.87;;;;;;;19.51;39.90;103276.31;;;;-49
2020/01/20 00:56:55;;;;;;;2.12;1.92;;;;;;;19.49;39.81;103278.27;;;;-49
2020/01/20 00:59:56;;;;;;;2.23;2.00;;;;;;;19.48;39.88;103276.38;;;;-49
2020/01/20 01:02:55;;;;;;;2.70;2.04;;;;;;;19.47;39.87;103275.62;;;;-49
2020/01/20 01:07:55;;;;;;;2.21;2.00;;;;;;;19.45;39.91;103275.11;;;;-49
2020/01/20 01:10:55;;;;;;;2.55;1.91;;;;;;;19.43;39.87;103274.20;;;;-49
2020/01/20 01:13:55;;;;;;;2.66;2.07;;;;;;;19.42;39.96;103270.87;;;;-49
2020/01/20 01:16:55;;;;;;;2.01;1.81;;;;;;;19.40;39.90;103276.28;;;;-49
2020/01/20 01:19:55;;;;;;;2.03;1.83;;;;;;;19.38;39.97;103276.39;;;;-49
2020/01/20 01:22:55;;;;;;;2.40;2.03;;;;;;;19.37;39.94;103279.53;;;;-49
2020/01/20 01:25:55;;;;;;;2.16;1.89;;;;;;;19.36;39.92;103279.55;;;;-49
2020/01/20 01:28:55;;;;;;;2.42;1.89;;;;;;;19.34;39.97;103285.62;;;;-49
2020/01/20 01:31:55;;;;;;;2.36;1.93;;;;;;;19.32;39.91;103283.44;;;;-49
2020/01/20 01:34:55;;;;;;;2.34;1.87;;;;;;;19.31;39.99;103284.91;;;;-49
2020/01/20 01:37:55;;;;;;;2.00;1.80;;;;;;;19.31;40.01;103289.69;;;;-49
2020/01/20 01:40:56;;;;;;;2.29;1.89;;;;;;;19.30;40.03;103289.60;;;;-49
2020/01/20 01:44:03;;;;;;;2.35;1.95;;;;;;;19.28;39.99;103286.27;;;;-49
2020/01/20 01:47:06;;;;;;;2.24;2.01;;;;;;;19.27;40.03;103284.47;;;;-49
2020/01/20 01:49:59;;;;;;;2.35;1.90;;;;;;;19.26;40.05;103284.49;;;;-49
2020/01/20 01:53:20;;;;;;;2.36;1.90;;;;;;;19.25;40.02;103278.92;;;;-49
2020/01/20 01:55:55;;;;;;;1.99;1.79;;;;;;;19.23;40.02;103279.56;;;;-49
2020/01/20 01:58:55;;;;;;;2.25;1.95;;;;;;;19.23;40.05;103280.03;;;;-49
2020/01/20 02:01:55;;;;;;;2.42;2.02;;;;;;;19.21;40.04;103277.25;;;;-49
2020/01/20 02:04:55;;;;;;;2.05;1.85;;;;;;;19.21;40.02;103279.18;;;;-49
2020/01/20 02:07:55;;;;;;;2.17;1.95;;;;;;;19.20;40.08;103272.44;;;;-49
2020/01/20 02:10:55;;;;;;;2.41;1.83;;;;;;;19.18;40.08;103266.54;;;;-49
2020/01/20 02:13:55;;;;;;;2.51;2.05;;;;;;;19.18;40.03;103270.97;;;;-49
2020/01/20 02:16:55;;;;;;;2.42;1.97;;;;;;;19.16;40.02;103270.47;;;;-49
2020/01/20 02:19:55;;;;;;;2.16;1.93;;;;;;;19.16;40.06;103271.91;;;;-49
2020/01/20 02:22:55;;;;;;;2.15;1.80;;;;;;;19.13;40.09;103267.06;;;;-49
2020/01/20 02:25:55;;;;;;;2.02;1.82;;;;;;;19.13;40.03;103265.30;;;;-49
2020/01/20 02:28:55;;;;;;;2.59;1.99;;;;;;;19.11;40.12;103265.79;;;;-49
2020/01/20 02:31:55;;;;;;;2.11;1.88;;;;;;;19.11;40.09;103263.33;;;;-49
2020/01/20 02:34:55;;;;;;;2.13;1.91;;;;;;;19.10;40.05;103258.50;;;;-49
2020/01/20 02:37:55;;;;;;;2.11;1.83;;;;;;;19.08;40.05;103262.72;;;;-49
2020/01/20 02:40:55;;;;;;;2.16;1.87;;;;;;;19.07;40.09;103261.13;;;;-49
2020/01/20 02:43:55;;;;;;;2.27;1.98;;;;;;;19.07;40.08;103261.17;;;;-49
2020/01/20 02:46:55;;;;;;;2.19;1.80;;;;;;;19.05;40.09;103263.84;;;;-49
2020/01/20 02:49:55;;;;;;;2.68;1.92;;;;;;;19.05;40.08;103269.38;;;;-49
2020/01/20 02:52:55;;;;;;;2.02;1.82;;;;;;;19.03;40.09;103266.95;;;;-49
2020/01/20 02:55:55;;;;;;;2.00;1.80;;;;;;;19.02;40.08;103266.45;;;;-49
2020/01/20 02:58:55;;;;;;;2.33;1.87;;;;;;;19.00;40.08;103265.96;;;;-49
2020/01/20 03:01:55;;;;;;;2.33;1.96;;;;;;;19.00;40.10;103265.09;;;;-49
2020/01/20 03:04:55;;;;;;;2.20;1.79;;;;;;;18.99;40.12;103263.08;;;;-49
2020/01/20 03:07:55;;;;;;;2.46;1.78;;;;;;;18.99;40.11;103265.67;;;;-49
2020/01/20 03:10:55;;;;;;;2.14;1.83;;;;;;;18.98;40.12;103263.48;;;;-49
2020/01/20 03:13:55;;;;;;;1.89;1.62;;;;;;;18.97;40.13;103261.81;;;;-49
2020/01/20 03:16:55;;;;;;;2.39;1.99;;;;;;;18.96;40.15;103262.27;;;;-49
2020/01/20 03:19:55;;;;;;;2.07;1.85;;;;;;;18.95;40.14;103268.66;;;;-49
2020/01/20 03:22:55;;;;;;;1.96;1.75;;;;;;;18.94;40.12;103273.70;;;;-50
2020/01/20 03:25:55;;;;;;;2.03;1.74;;;;;;;18.92;40.13;103273.58;;;;-49
2020/01/20 03:28:55;;;;;;;2.00;1.80;;;;;;;18.92;40.12;103283.00;;;;-49
2020/01/20 03:32:02;;;;;;;2.03;1.80;;;;;;;18.91;40.13;103282.81;;;;-49
2020/01/20 03:35:33;;;;;;;2.25;1.71;;;;;;;18.90;40.13;103284.23;;;;-49
2020/01/20 03:38:53;;;;;;;1.90;1.73;;;;;;;18.90;40.19;103281.31;;;;-49
2020/01/20 03:41:55;;;;;;;2.25;1.80;;;;;;;18.88;40.14;103282.75;;;;-49
2020/01/20 03:44:55;;;;;;;2.04;1.81;;;;;;;18.88;40.16;103282.75;;;;-49
2020/01/20 03:47:55;;;;;;;1.97;1.79;;;;;;;18.86;40.16;103285.03;;;;-49
2020/01/20 03:50:55;;;;;;;2.25;1.89;;;;;;;18.86;40.19;103285.25;;;;-49
2020/01/20 03:53:55;;;;;;;2.07;1.83;;;;;;;18.85;40.19;103286.33;;;;-49
2020/01/20 03:56:55;;;;;;;2.00;1.73;;;;;;;18.84;40.16;103293.50;;;;-49
2020/01/20 03:59:55;;;;;;;2.50;1.82;;;;;;;18.83;40.15;103295.42;;;;-49
2020/01/20 04:02:55;;;;;;;2.35;1.79;;;;;;;18.84;40.18;103296.51;;;;-49
2020/01/20 04:05:56;;;;;;;2.34;1.75;;;;;;;18.83;40.23;103295.19;;;;-49
2020/01/20 04:08:55;;;;;;;2.03;1.83;;;;;;;18.84;40.23;103296.62;;;;-49
2020/01/20 04:11:55;;;;;;;1.92;1.62;;;;;;;18.85;40.21;103290.06;;;;-49
2020/01/20 04:14:55;;;;;;;2.31;1.79;;;;;;;18.86;40.20;103291.34;;;;-49
2020/01/20 04:17:55;;;;;;;2.20;1.74;;;;;;;18.88;40.20;103289.12;;;;-49
2020/01/20 04:20:55;;;;;;;2.36;1.80;;;;;;;18.90;40.34;103289.52;;;;-49
2020/01/20 04:23:55;;;;;;;1.83;1.70;;;;;;;18.93;40.17;103289.62;;;;-49
2020/01/20 04:26:55;;;;;;;2.03;1.76;;;;;;;18.96;40.28;103289.55;;;;-49
2020/01/20 04:29:55;;;;;;;1.70;1.60;;;;;;;19.01;40.35;103299.02;;;;-49
2020/01/20 04:32:55;;;;;;;1.88;1.72;;;;;;;19.04;40.27;103292.29;;;;-49
2020/01/20 04:35:55;;;;;;;1.96;1.75;;;;;;;19.10;40.20;103294.63;;;;-49
2020/01/20 04:38:55;;;;;;;2.07;1.74;;;;;;;19.13;40.22;103296.00;;;;-49
2020/01/20 04:41:55;;;;;;;2.09;1.76;;;;;;;19.18;40.20;103292.34;;;;-49
2020/01/20 04:45:00;;;;;;;2.02;1.82;;;;;;;19.23;40.30;103297.04;;;;-49
2020/01/20 04:47:55;;;;;;;1.89;1.70;;;;;;;19.24;40.25;103303.45;;;;-49
2020/01/20 04:50:59;;;;;;;2.12;1.69;;;;;;;19.29;40.32;103305.59;;;;-49
2020/01/20 04:53:55;;;;;;;1.93;1.65;;;;;;;19.33;40.29;103304.09;;;;-49
2020/01/20 04:56:56;;;;;;;1.76;1.61;;;;;;;19.35;40.32;103309.74;;;;-49
2020/01/20 04:59:55;;;;;;;1.99;1.73;;;;;;;19.40;40.31;103308.34;;;;-49
2020/01/20 05:02:55;;;;;;;1.97;1.75;;;;;;;19.43;40.25;103317.91;;;;-49
2020/01/20 05:05:55;;;;;;;2.19;1.77;;;;;;;19.48;40.28;103322.31;;;;-49
2020/01/20 05:08:55;;;;;;;1.74;1.61;;;;;;;19.49;40.33;103324.44;;;;-49
2020/01/20 05:11:55;;;;;;;2.29;1.70;;;;;;;19.53;40.31;103330.02;;;;-49
2020/01/20 05:14:55;;;;;;;2.22;1.64;;;;;;;19.54;40.33;103332.98;;;;-49
2020/01/20 05:17:55;;;;;;;2.31;1.67;;;;;;;19.57;40.30;103334.94;;;;-49
2020/01/20 05:20:57;;;;;;;2.40;1.70;;;;;;;19.60;40.31;103339.95;;;;-50
2020/01/20 05:23:59;;;;;;;2.25;1.80;;;;;;;19.64;40.27;103343.84;;;;-49
2020/01/20 05:26:56;;;;;;;2.11;1.70;;;;;;;19.69;40.15;103349.87;;;;-49
2020/01/20 05:29:55;;;;;;;1.69;1.59;;;;;;;19.68;40.12;103354.38;;;;-49
2020/01/20 05:32:55;;;;;;;1.81;1.70;;;;;;;19.71;40.11;103359.61;;;;-49
2020/01/20 05:35:55;;;;;;;1.77;1.60;;;;;;;19.72;40.12;103358.09;;;;-49
2020/01/20 05:38:55;;;;;;;1.98;1.75;;;;;;;19.75;40.11;103364.78;;;;-49
2020/01/20 05:41:55;;;;;;;2.03;1.71;;;;;;;19.78;40.09;103371.73;;;;-50
2020/01/20 05:44:55;;;;;;;2.01;1.81;;;;;;;19.80;40.10;103368.94;;;;-49
2020/01/20 05:47:55;;;;;;;2.02;1.61;;;;;;;19.82;40.08;103375.59;;;;-49
2020/01/20 05:50:55;;;;;;;2.16;1.63;;;;;;;19.85;40.07;103375.31;;;;-50
2020/01/20 05:53:55;;;;;;;1.86;1.61;;;;;;;19.87;40.10;103379.27;;;;-50
2020/01/20 05:56:55;;;;;;;2.61;1.81;;;;;;;19.89;40.06;103384.81;;;;-50
2020/01/20 05:59:55;;;;;;;2.03;1.72;;;;;;;19.92;40.06;103388.13;;;;-50
2020/01/20 06:02:55;;;;;;;1.82;1.63;;;;;;;19.94;39.97;103396.14;;;;-50
2020/01/20 06:05:55;;;;;;;2.49;1.79;;;;;;;19.97;40.01;103400.04;;;;-50
2020/01/20 06:08:55;;;;;;;2.45;1.73;;;;;;;20.02;39.94;103399.37;;;;-50
2020/01/20 06:11:55;;;;;;;1.94;1.62;;;;;;;20.02;39.91;103392.83;;;;-54
2020/01/20 06:14:55;;;;;;;2.65;1.67;;;;;;;20.04;39.94;103402.05;;;;-53
2020/01/20 06:17:55;;;;;;;1.83;1.63;;;;;;;20.06;39.99;103399.06;;;;-53
2020/01/20 06:20:55;;;;;;;1.89;1.69;;;;;;;20.08;40.18;103392.70;;;;-47
2020/01/20 06:23:55;;;;;;;2.54;1.83;;;;;;;20.14;40.02;103389.03;;;;-49
2020/01/20 06:26:55;;;;;;;3.49;1.89;;;;;;;20.17;40.66;103378.05;;;;-51
2020/01/20 06:29:55;;;;;;;2.59;1.81;;;;;;;20.21;40.78;103373.48;;;;-50
2020/01/20 06:32:56;;;;;;;2.79;1.73;;;;;;;20.24;40.70;103371.27;;;;-51
2020/01/20 06:35:55;;;;;;;2.73;1.70;;;;;;;20.25;40.82;103371.09;;;;-52
2020/01/20 06:38:55;;;;;;;2.38;1.70;;;;;;;20.32;40.89;103374.16;;;;-52
2020/01/20 06:41:55;;;;;;;1.71;1.61;;;;;;;20.33;40.80;103371.87;;;;-52
2020/01/20 06:44:55;;;;;;;2.99;1.69;;;;;;;20.37;40.77;103372.47;;;;-51
2020/01/20 06:48:27;;;;;;;2.43;1.79;;;;;;;20.40;40.49;103378.07;;;;-52
2020/01/20 06:51:04;;;;;;;2.81;1.90;;;;;;;20.43;40.56;103380.86;;;;-52
2020/01/20 06:57:55;;;;;;;3.31;1.83;;;;;;;20.50;40.62;103394.12;;;;-48
2020/01/20 07:00:55;;;;;;;2.56;1.81;;;;;;;20.54;40.83;103395.63;;;;-48
2020/01/20 07:03:55;;;;;;;2.21;1.80;;;;;;;20.54;40.75;103392.78;;;;-51
2020/01/20 07:06:55;;;;;;;2.52;1.69;;;;;;;20.55;40.62;103394.10;;;;-54
2020/01/20 07:09:55;;;;;;;3.51;1.71;;;;;;;20.59;40.61;103397.41;;;;-52
2020/01/20 07:12:55;;;;;;;1.93;1.60;;;;;;;20.59;40.57;103400.50;;;;-51
2020/01/20 07:15:55;;;;;;;1.95;1.71;;;;;;;20.61;40.60;103401.92;;;;-51
2020/01/20 07:18:55;;;;;;;2.95;1.71;;;;;;;20.61;40.60;103404.03;;;;-57
2020/01/20 07:21:55;;;;;;;2.06;1.74;;;;;;;20.62;40.55;103404.53;;;;-53
2020/01/20 07:24:55;;;;;;;1.98;1.65;;;;;;;20.66;40.47;103409.77;;;;-51
2020/01/20 07:27:56;;;;;;;2.03;1.71;;;;;;;20.66;40.27;103410.64;;;;-49
2020/01/20 07:30:55;;;;;;;2.08;1.68;;;;;;;20.68;40.51;103413.14;;;;-52
2020/01/20 07:33:55;;;;;;;2.91;1.71;;;;;;;20.69;40.53;103423.61;;;;-54
2020/01/20 07:36:55;;;;;;;2.52;1.81;;;;;;;20.72;40.34;103425.33;;;;-53
2020/01/20 07:39:55;;;;;;;2.95;1.86;;;;;;;20.69;40.04;103426.77;;;;-53
2020/01/20 07:42:55;;;;;;;2.77;1.70;;;;;;;20.68;39.92;103427.61;;;;-53
2020/01/20 07:45:55;;;;;;;1.85;1.68;;;;;;;20.67;39.88;103433.84;;;;-53
2020/01/20 07:48:55;;;;;;;2.56;1.70;;;;;;;20.67;39.83;103434.33;;;;-53
2020/01/20 07:51:55;;;;;;;4.24;1.75;;;;;;;20.68;39.84;103431.78;;;;-51
2020/01/20 07:54:55;;;;;;;3.63;2.06;;;;;;;20.67;39.28;103436.84;;;;-47
2020/01/20 07:58:00;;;;;;;3.20;2.30;;;;;;;20.67;39.06;103433.68;;;;-49
2020/01/20 08:04:30;;;;;;;2.76;1.99;;;;;;;20.69;38.94;103435.53;;;;-55
2020/01/20 08:07:04;;;;;;;2.96;2.15;;;;;;;20.71;39.09;103440.80;;;;-55
2020/01/20 08:09:55;;;;;;;2.17;1.80;;;;;;;20.69;39.12;103444.13;;;;-51
2020/01/20 08:12:55;;;;;;;3.97;1.92;;;;;;;20.72;39.08;103443.72;;;;-52
2020/01/20 08:15:55;;;;;;;4.37;2.21;;;;;;;20.73;39.19;103440.64;;;;-51
2020/01/20 08:18:55;;;;;;;4.15;2.02;;;;;;;20.73;39.14;103442.83;;;;-57
2020/01/20 08:21:55;;;;;;;3.95;2.05;;;;;;;20.76;39.25;103444.91;;;;-51
2020/01/20 08:24:55;;;;;;;4.19;1.97;;;;;;;20.75;39.67;103442.55;;;;-51
2020/01/20 08:28:09;;;;;;;4.06;1.90;;;;;;;20.77;39.58;103444.40;;;;-51
2020/01/20 08:30:55;;;;;;;3.61;2.05;;;;;;;20.80;39.63;103447.11;;;;-51
2020/01/20 08:33:55;;;;;;;3.65;1.92;;;;;;;20.82;39.69;103450.97;;;;-50
2020/01/20 08:36:55;;;;;;;5.23;1.91;;;;;;;20.83;39.92;103455.59;;;;-54
2020/01/20 08:39:55;;;;;;;4.09;2.01;;;;;;;20.86;39.79;103455.08;;;;-50
2020/01/20 08:42:55;;;;;;;4.61;2.36;;;;;;;20.85;39.66;103455.27;;;;-46
2020/01/20 08:45:55;;;;;;;4.54;1.91;;;;;;;20.86;38.61;103459.05;;;;-49
2020/01/20 08:48:55;;;;;;;5.41;2.21;;;;;;;20.88;39.09;103460.73;;;;-52
2020/01/20 08:51:55;;;;;;;5.15;2.04;;;;;;;20.87;39.24;103458.97;;;;-52
2020/01/20 08:54:55;;;;;;;4.13;2.11;;;;;;;20.86;39.22;103460.78;;;;-52
2020/01/20 08:57:55;;;;;;;3.37;2.06;;;;;;;20.86;39.18;103464.03;;;;-52
2020/01/20 09:01:11;;;;;;;4.38;1.98;;;;;;;20.86;39.15;103466.27;;;;-52
2020/01/20 09:04:17;;;;;;;5.09;2.16;;;;;;;20.85;39.13;103464.84;;;;-52
2020/01/20 09:06:58;;;;;;;3.86;2.16;;;;;;;20.86;39.12;103475.34;;;;-52
2020/01/20 09:09:55;;;;;;;4.75;2.11;;;;;;;20.87;39.08;103481.20;;;;-52
2020/01/20 09:12:55;;;;;;;2.89;2.06;;;;;;;20.87;39.06;103488.87;;;;-52
2020/01/20 09:15:55;;;;;;;3.11;1.99;;;;;;;20.88;39.07;103485.38;;;;-52
2020/01/20 09:18:55;;;;;;;4.23;1.99;;;;;;;20.87;39.05;103484.64;;;;-52
2020/01/20 09:21:55;;;;;;;3.93;1.87;;;;;;;20.87;39.05;103489.52;;;;-52
2020/01/20 09:24:55;;;;;;;3.17;1.91;;;;;;;20.88;39.10;103490.61;;;;-52
2020/01/20 09:27:55;;;;;;;8.00;2.30;;;;;;;20.91;39.28;103491.91;;;;-53
2020/01/20 09:30:55;;;;;;;6.05;1.97;;;;;;;20.92;39.42;103496.14;;;;-57
2020/01/20 09:33:55;;;;;;;4.53;2.03;;;;;;;20.94;39.35;103503.56;;;;-55
2020/01/20 09:36:55;;;;;;;7.34;2.28;;;;;;;20.95;39.45;103505.89;;;;-53
2020/01/20 09:39:55;;;;;;;3.57;2.22;;;;;;;20.96;39.15;103507.91;;;;-52
2020/01/20 09:42:55;;;;;;;3.22;2.03;;;;;;;20.96;39.19;103511.81;;;;-52
2020/01/20 09:45:55;;;;;;;4.62;2.11;;;;;;;20.98;39.28;103511.70;;;;-47
2020/01/20 09:48:55;;;;;;;6.03;1.99;;;;;;;21.00;39.32;103510.36;;;;-45
2020/01/20 09:51:55;;;;;;;2.78;2.01;;;;;;;21.00;39.38;103511.37;;;;-48
2020/01/20 09:54:55;;;;;;;3.25;1.87;;;;;;;21.03;39.37;103514.60;;;;-47
2020/01/20 09:57:55;;;;;;;5.01;2.08;;;;;;;21.05;39.32;103515.95;;;;-50
2020/01/20 10:00:55;;;;;;;3.41;2.10;;;;;;;21.07;39.41;103513.44;;;;-50
2020/01/20 10:03:55;;;;;;;3.98;2.03;;;;;;;21.07;39.27;103516.34;;;;-48
2020/01/20 10:06:55;;;;;;;2.99;2.07;;;;;;;21.08;39.23;103513.02;;;;-49
2020/01/20 10:09:55;;;;;;;3.90;1.92;;;;;;;21.10;39.35;103512.85;;;;-51
2020/01/20 10:12:55;;;;;;;7.44;2.10;;;;;;;21.09;39.18;103507.72;;;;-51
2020/01/20 10:15:55;;;;;;;3.33;1.89;;;;;;;21.07;39.16;103501.44;;;;-51
2020/01/20 10:18:55;;;;;;;7.01;2.19;;;;;;;21.08;39.16;103501.92;;;;-51
2020/01/20 10:21:55;;;;;;;4.96;2.14;;;;;;;21.05;39.32;103491.30;;;;-53
2020/01/20 10:24:55;;;;;;;7.83;2.20;;;;;;;21.06;39.40;103491.95;;;;-48
2020/01/20 10:27:55;;;;;;;10.69;4.39;;;;;;;21.05;38.24;103494.44;;;;-54
2020/01/20 10:30:55;;;;;;;9.69;4.40;;;;;;;21.04;37.64;103492.11;;;;-51
2020/01/20 10:33:55;;;;;;;13.43;5.17;;;;;;;21.04;38.15;103488.91;;;;-54
2020/01/20 10:36:55;;;;;;;13.44;5.14;;;;;;;21.04;38.27;103490.03;;;;-55
2020/01/20 10:39:55;;;;;;;9.70;4.87;;;;;;;21.04;37.11;103490.25;;;;-58
2020/01/20 10:43:10;;;;;;;11.17;5.31;;;;;;;21.03;37.11;103487.27;;;;-49
2020/01/20 10:49:09;;;;;;;12.55;5.21;;;;;;;20.98;37.73;103488.94;;;;-53
2020/01/20 10:51:55;;;;;;;8.94;4.53;;;;;;;20.99;37.88;103483.16;;;;-49
2020/01/20 10:54:55;;;;;;;8.93;4.51;;;;;;;21.02;37.89;103486.92;;;;-51
2020/01/20 10:57:55;;;;;;;10.92;4.73;;;;;;;21.04;38.20;103481.18;;;;-57
2020/01/20 11:00:55;;;;;;;10.55;4.31;;;;;;;21.05;38.36;103481.22;;;;-51
2020/01/20 11:03:55;;;;;;;16.67;4.54;;;;;;;21.07;38.45;103480.55;;;;-50
2020/01/20 11:06:55;;;;;;;8.81;4.02;;;;;;;21.09;38.74;103478.36;;;;-50
2020/01/20 11:09:55;;;;;;;10.43;4.95;;;;;;;21.08;38.41;103485.62;;;;-52
2020/01/20 11:12:55;;;;;;;15.24;4.75;;;;;;;21.10;38.37;103480.08;;;;-45
2020/01/20 11:15:55;;;;;;;12.02;4.30;;;;;;;21.15;38.84;103482.91;;;;-52
2020/01/20 11:18:55;;;;;;;8.14;3.97;;;;;;;21.15;38.64;103486.50;;;;-50
2020/01/20 11:21:55;;;;;;;9.57;4.45;;;;;;;21.17;38.73;103484.27;;;;-49
2020/01/20 11:24:55;;;;;;;10.49;4.33;;;;;;;21.19;38.75;103480.26;;;;-51
2020/01/20 11:27:55;;;;;;;8.95;3.95;;;;;;;21.21;38.80;103471.38;;;;-47
2020/01/20 11:30:55;;;;;;;7.11;3.97;;;;;;;21.21;38.89;103463.50;;;;-48
2020/01/20 11:33:55;;;;;;;10.18;4.07;;;;;;;21.22;38.99;103462.70;;;;-50
2020/01/20 11:36:55;;;;;;;8.21;3.87;;;;;;;21.22;38.94;103463.87;;;;-48
2020/01/20 11:39:55;;;;;;;7.40;4.06;;;;;;;21.23;39.17;103461.44;;;;-51
2020/01/20 11:42:55;;;;;;;7.13;3.45;;;;;;;21.25;39.07;103452.00;;;;-53
2020/01/20 11:45:55;;;;;;;6.93;3.56;;;;;;;21.25;39.02;103446.17;;;;-51
2020/01/20 11:49:19;;;;;;;7.81;3.67;;;;;;;21.27;38.88;103445.13;;;;-49
2020/01/20 11:51:55;;;;;;;8.93;3.78;;;;;;;21.26;38.96;103439.05;;;;-49
2020/01/20 11:55:03;;;;;;;5.06;3.18;;;;;;;21.28;39.05;103432.47;;;;-51
2020/01/20 12:02:56;;;;;;;8.00;3.35;;;;;;;21.25;38.84;103426.70;;;;-52
2020/01/20 12:05:56;;;;;;;5.85;3.59;;;;;;;21.22;38.85;103420.31;;;;-52
2020/01/20 12:11:55;;;;;;;5.11;3.16;;;;;;;21.20;38.83;103418.45;;;;-52
2020/01/20 12:14:55;;;;;;;5.09;3.01;;;;;;;21.20;38.79;103414.33;;;;-52
2020/01/20 12:17:55;;;;;;;5.15;3.29;;;;;;;21.18;38.85;103411.67;;;;-52
2020/01/20 12:20:57;;;;;;;6.82;2.97;;;;;;;21.17;38.84;103410.02;;;;-52
2020/01/20 12:23:56;;;;;;;5.43;3.14;;;;;;;21.16;38.84;103410.61;;;;-52
2020/01/20 12:26:58;;;;;;;4.78;2.90;;;;;;;21.15;38.75;103407.27;;;;-52
2020/01/20 12:29:55;;;;;;;6.77;3.01;;;;;;;21.14;38.77;103402.20;;;;-50
2020/01/20 12:32:55;;;;;;;6.19;2.99;;;;;;;21.13;38.78;103400.83;;;;-50
2020/01/20 12:35:55;;;;;;;5.27;2.71;;;;;;;21.13;38.79;103397.25;;;;-50
2020/01/20 12:38:55;;;;;;;5.45;2.73;;;;;;;21.12;38.78;103391.84;;;;-50
2020/01/20 12:41:55;;;;;;;5.35;2.77;;;;;;;21.12;38.88;103388.42;;;;-50
2020/01/20 12:44:55;;;;;;;3.99;2.71;;;;;;;21.12;38.77;103389.15;;;;-50
2020/01/20 12:47:55;;;;;;;5.07;2.87;;;;;;;21.12;38.81;103385.06;;;;-50
2020/01/20 12:50:55;;;;;;;4.56;2.98;;;;;;;21.13;38.82;103379.37;;;;-48
2020/01/20 12:53:55;;;;;;;3.83;2.61;;;;;;;21.13;39.12;103378.39;;;;-47
2020/01/20 12:56:55;;;;;;;5.81;2.77;;;;;;;21.15;39.11;103374.02;;;;-48
2020/01/20 12:59:55;;;;;;;4.00;2.56;;;;;;;21.16;39.09;103376.46;;;;-47
2020/01/20 13:02:55;;;;;;;4.33;2.62;;;;;;;21.18;39.19;103368.53;;;;-48
2020/01/20 13:05:56;;;;;;;5.21;2.69;;;;;;;21.20;39.26;103368.25;;;;-52
2020/01/20 13:08:55;;;;;;;4.65;2.69;;;;;;;21.19;39.28;103364.33;;;;-49
2020/01/20 13:11:55;;;;;;;4.02;2.47;;;;;;;21.19;39.28;103362.09;;;;-49
2020/01/20 13:14:55;;;;;;;4.13;2.49;;;;;;;21.20;39.29;103360.97;;;;-49
2020/01/20 13:17:55;;;;;;;4.57;2.33;;;;;;;21.20;39.35;103361.19;;;;-49
2020/01/20 13:20:55;;;;;;;3.99;2.33;;;;;;;21.19;39.28;103355.22;;;;-51
2020/01/20 13:23:55;;;;;;;3.40;2.23;;;;;;;21.19;39.33;103359.28;;;;-51
2020/01/20 13:26:55;;;;;;;4.81;2.49;;;;;;;21.19;39.29;103360.77;;;;-48
2020/01/20 13:29:55;;;;;;;3.96;2.39;;;;;;;21.18;39.36;103357.12;;;;-48
2020/01/20 13:32:55;;;;;;;3.77;2.21;;;;;;;21.18;39.30;103354.94;;;;-49
2020/01/20 13:35:56;;;;;;;4.73;2.28;;;;;;;21.19;39.26;103354.58;;;;-45
2020/01/20 13:38:55;;;;;;;3.79;2.47;;;;;;;21.18;39.28;103353.30;;;;-48
2020/01/20 13:41:55;;;;;;;4.66;2.09;;;;;;;21.18;39.11;103355.37;;;;-48
2020/01/20 13:44:55;;;;;;;4.10;2.21;;;;;;;21.16;39.08;103349.06;;;;-48
2020/01/20 13:48:00;;;;;;;3.65;2.19;;;;;;;21.15;38.99;103355.51;;;;-48
2020/01/20 13:55:57;;;;;;;2.81;2.04;;;;;;;21.12;38.97;103346.30;;;;-48
2020/01/20 13:58:55;;;;;;;3.24;2.19;;;;;;;21.10;38.86;103354.19;;;;-48
2020/01/20 14:01:55;;;;;;;3.48;2.18;;;;;;;21.09;38.96;103350.80;;;;-48
2020/01/20 14:04:55;;;;;;;3.61;2.29;;;;;;;21.09;38.98;103348.50;;;;-48
2020/01/20 14:07:55;;;;;;;2.70;1.94;;;;;;;21.08;38.88;103347.36;;;;-48
2020/01/20 14:10:55;;;;;;;3.17;2.13;;;;;;;21.08;38.83;103344.83;;;;-48
2020/01/20 14:13:55;;;;;;;3.47;1.87;;;;;;;21.08;38.97;103342.59;;;;-47
2020/01/20 14:16:55;;;;;;;4.25;2.01;;;;;;;21.08;39.32;103340.24;;;;-46
2020/01/20 14:19:55;;;;;;;3.34;2.19;;;;;;;21.11;39.32;103341.00;;;;-46
2020/01/20 14:22:55;;;;;;;3.90;2.11;;;;;;;21.10;39.31;103337.89;;;;-47
2020/01/20 14:25:55;;;;;;;3.23;2.00;;;;;;;21.11;39.27;103336.57;;;;-47
2020/01/20 14:28:55;;;;;;;3.73;2.05;;;;;;;21.11;39.28;103330.12;;;;-46
2020/01/20 14:31:55;;;;;;;3.95;2.15;;;;;;;21.10;39.37;103326.58;;;;-42
2020/01/20 14:34:56;;;;;;;4.83;2.02;;;;;;;21.11;38.72;103323.97;;;;-44
2020/01/20 14:37:55;;;;;;;4.52;2.11;;;;;;;21.11;38.79;103327.33;;;;-45
2020/01/20 14:40:55;;;;;;;2.93;1.97;;;;;;;21.11;39.00;103323.86;;;;-46
2020/01/20 14:43:55;;;;;;;3.49;2.17;;;;;;;21.12;39.07;103317.95;;;;-52
2020/01/20 14:46:55;;;;;;;5.90;2.00;;;;;;;21.12;39.09;103316.77;;;;-47
2020/01/20 14:49:55;;;;;;;4.82;1.87;;;;;;;21.15;39.26;103313.38;;;;-43
2020/01/20 14:52:55;;;;;;;4.68;2.18;;;;;;;21.06;37.81;103312.62;;;;-45
2020/01/20 14:55:55;;;;;;;6.25;1.99;;;;;;;21.01;36.80;103308.37;;;;-48
2020/01/20 14:58:55;;;;;;;3.86;2.03;;;;;;;20.99;37.48;103310.70;;;;-45
2020/01/20 15:01:55;;;;;;;3.35;2.04;;;;;;;21.04;37.58;103309.71;;;;-44
2020/01/20 15:04:56;;;;;;;3.12;1.90;;;;;;;21.07;37.98;103312.71;;;;-45
2020/01/20 15:07:55;;;;;;;5.03;2.06;;;;;;;21.12;38.14;103312.25;;;;-48
2020/01/20 15:10:55;;;;;;;2.97;2.01;;;;;;;21.15;38.24;103312.98;;;;-48
2020/01/20 15:13:55;;;;;;;3.75;1.83;;;;;;;21.16;38.26;103312.17;;;;-47
2020/01/20 15:16:55;;;;;;;2.39;1.77;;;;;;;21.18;38.37;103311.27;;;;-45
2020/01/20 15:19:55;;;;;;;3.50;1.91;;;;;;;21.21;38.61;103310.70;;;;-46
2020/01/20 15:22:56;;;;;;;3.13;1.86;;;;;;;21.23;38.67;103313.31;;;;-47
2020/01/20 15:25:55;;;;;;;2.47;1.63;;;;;;;21.24;38.61;103311.77;;;;-49
2020/01/20 15:28:55;;;;;;;4.33;1.85;;;;;;;21.24;38.63;103312.91;;;;-51
2020/01/20 15:31:55;;;;;;;3.46;1.90;;;;;;;21.24;38.56;103310.87;;;;-44
2020/01/20 15:34:55;;;;;;;5.17;1.95;;;;;;;21.24;39.26;103309.70;;;;-51
2020/01/20 15:38:00;;;;;;;3.85;1.83;;;;;;;21.20;37.94;103307.93;;;;-47
2020/01/20 15:41:55;;;;;;;3.17;1.75;;;;;;;21.19;37.89;103303.73;;;;-47
2020/01/20 15:48:58;;;;;;;3.04;1.84;;;;;;;21.16;38.16;103300.52;;;;-46
2020/01/20 15:51:55;;;;;;;2.82;1.67;;;;;;;21.16;38.15;103306.40;;;;-47
2020/01/20 15:54:55;;;;;;;3.79;1.85;;;;;;;21.15;38.15;103307.13;;;;-46
2020/01/20 15:57:55;;;;;;;2.15;1.61;;;;;;;21.15;38.15;103308.44;;;;-46
2020/01/20 16:00:55;;;;;;;1.99;1.60;;;;;;;21.14;38.24;103313.85;;;;-47
2020/01/20 16:03:55;;;;;;;2.13;1.47;;;;;;;21.13;38.35;103310.66;;;;-46
2020/01/20 16:06:55;;;;;;;3.29;1.78;;;;;;;21.14;38.23;103313.02;;;;-46
2020/01/20 16:09:55;;;;;;;2.07;1.61;;;;;;;21.14;38.27;103315.53;;;;-46
2020/01/20 16:12:55;;;;;;;2.40;1.68;;;;;;;21.13;38.37;103313.38;;;;-47
2020/01/20 16:15:55;;;;;;;2.67;1.87;;;;;;;21.13;38.28;103314.02;;;;-46
2020/01/20 16:18:55;;;;;;;2.01;1.72;;;;;;;21.12;38.34;103313.69;;;;-46
2020/01/20 16:21:55;;;;;;;2.29;1.60;;;;;;;21.12;38.48;103314.75;;;;-46
2020/01/20 16:24:55;;;;;;;2.67;1.71;;;;;;;21.12;38.37;103312.45;;;;-47
2020/01/20 16:27:55;;;;;;;2.83;1.90;;;;;;;21.12;38.37;103315.70;;;;-47
2020/01/20 16:30:55;;;;;;;3.09;1.81;;;;;;;21.11;38.38;103311.08;;;;-47
2020/01/20 16:33:55;;;;;;;2.34;1.60;;;;;;;21.11;38.49;103312.88;;;;-46
2020/01/20 16:36:55;;;;;;;1.89;1.60;;;;;;;21.11;38.28;103306.60;;;;-47
2020/01/20 16:39:55;;;;;;;2.90;1.63;;;;;;;21.10;38.39;103311.62;;;;-47
2020/01/20 16:42:55;;;;;;;2.27;1.67;;;;;;;21.11;38.37;103311.02;;;;-46
2020/01/20 16:45:55;;;;;;;1.79;1.54;;;;;;;21.11;38.53;103310.47;;;;-46
2020/01/20 16:48:55;;;;;;;2.22;1.67;;;;;;;21.11;38.44;103314.39;;;;-46
2020/01/20 16:51:55;;;;;;;2.25;1.70;;;;;;;21.11;38.48;103313.27;;;;-46
2020/01/20 16:54:55;;;;;;;1.66;1.55;;;;;;;21.11;38.50;103315.11;;;;-47
2020/01/20 16:57:56;;;;;;;5.17;1.66;;;;;;;21.11;38.45;103314.22;;;;-43
2020/01/20 17:00:55;;;;;;;4.83;1.80;;;;;;;21.13;38.58;103316.20;;;;-46
2020/01/20 17:03:55;;;;;;;2.44;1.83;;;;;;;21.15;38.52;103312.88;;;;-43
2020/01/20 17:06:55;;;;;;;3.45;1.94;;;;;;;21.18;38.39;103312.78;;;;-47
2020/01/20 17:09:55;;;;;;;2.43;1.58;;;;;;;21.19;38.34;103302.45;;;;-46
2020/01/20 17:12:55;;;;;;;3.99;2.02;;;;;;;21.20;38.45;103303.98;;;;-46